Naicam, Canada
Current Conditions -  °F | °C
As of 12:08 PM on Sunday 21 Dec 2014 (Local Time) from CYBU Reporting Station
Moderate Snow Moderate Snow  
Wind Chill: 16°   Ceiling: 300
Heat Index: 25°   Visibility: 0.5mi
Dew Point: 23°   Wind: 8mph
Humidity: 93%   Direction: 30°NNE
Pressure: 29.49"   Gusts: NA
Location:  52.42°N, 104.5°W
Report Text: CYBU 211808Z AUTO 03007KT 1/2SM SN OVC003 M04/M05 A2949 RMK SLP009
Loading
Personal Weather Stations






























Interactive Weather Map New forecast layout! Learn more

10-Day Weather Forecast

Advertisements
Track Severe Weather on mobile